Kankakee, Illinois
Current Conditions -  °F | °C
As of 10:15 AM on Wednesday 22 Oct 2014 (Local Time) from KIKK Reporting Station
Clear Clear  
Wind Chill:   Ceiling: Unl
Heat Index:   Visibility: 10mi
Dew Point:   Wind: 5mph
Humidity: 70%   Direction: 90°E
Pressure: 30.38"   Gusts: NA
Location:  41.12°N, 87.86°W
Report Text: KIKK 221515Z AUTO 09004KT 10SM CLR 09/04 A3038 RMK AO2 T00900037
Loading
Personal Weather Stations






























Interactive Weather Map
Tropical Storm Tracking
New forecast layout! Learn more

10-Day Weather Forecast

Advertisements
Track Severe Weather on mobile